createdAt,value
2018-12-08T00:01:01.982Z,99134.86
2018-12-08T00:03:31.777Z,99137.13
2018-12-08T00:06:01.515Z,99126.91
2018-12-08T00:08:31.560Z,99145.01
2018-12-08T00:11:01.388Z,99141.65
2018-12-08T00:59:13.793Z,99165.63
2018-12-08T01:01:43.734Z,99175.73
2018-12-08T01:04:13.541Z,99180.89
2018-12-08T01:06:43.349Z,99184.38
2018-12-08T01:17:12.122Z,99192.09
2018-12-08T01:19:40.238Z,99205.83
2018-12-08T01:22:10.278Z,99200.03
2018-12-08T01:37:58.735Z,99201.02
2018-12-08T01:40:28.505Z,99196.02
2018-12-08T01:53:40.175Z,99180.12
2018-12-08T01:56:09.986Z,99180.05
2018-12-08T01:58:39.755Z,99184.62
2018-12-08T02:01:09.621Z,99185.21
2018-12-08T02:03:39.395Z,99184.42
2018-12-08T02:11:26.058Z,99184.95
2018-12-08T02:13:55.857Z,99182.88
2018-12-08T02:16:25.628Z,99186.62
2018-12-08T02:18:55.686Z,99190.43
2018-12-08T02:21:25.472Z,99178.20
2018-12-08T02:23:55.223Z,99184.45
2018-12-08T02:37:12.628Z,99188.78
2018-12-08T02:39:42.440Z,99187.98
2018-12-08T02:42:12.220Z,99188.55
2018-12-08T02:44:42.064Z,99188.98
2018-12-08T02:47:11.909Z,99184.55
2018-12-08T02:49:42.023Z,99177.14
2018-12-08T02:52:11.794Z,99182.83
2018-12-08T02:54:41.595Z,99183.68
2018-12-08T02:57:11.423Z,99182.59
2018-12-08T02:59:41.197Z,99175.88
2018-12-08T03:02:11.333Z,99179.66
2018-12-08T03:12:40.825Z,99179.93
2018-12-08T03:15:24.950Z,99174.86
2018-12-08T03:17:54.744Z,99171.34
2018-12-08T03:28:14.490Z,99146.70
2018-12-08T03:30:45.470Z,99135.94
2018-12-08T03:51:57.087Z,99133.16
2018-12-08T04:05:02.138Z,99141.61
2018-12-08T04:07:32.189Z,99142.98
2018-12-08T04:10:02.230Z,99136.02
2018-12-08T04:12:32.009Z,99136.80
2018-12-08T04:15:01.753Z,99121.12
2018-12-08T04:17:31.542Z,99117.75
2018-12-08T04:20:01.689Z,99117.97
2018-12-08T04:22:31.502Z,99116.33
2018-12-08T04:25:01.248Z,99116.80
2018-12-08T04:27:32.510Z,99120.03
2018-12-08T04:30:02.357Z,99116.88
2018-12-08T04:32:32.150Z,99125.02
2018-12-08T04:35:01.958Z,99110.72
2018-12-08T04:37:31.722Z,99117.22
2018-12-08T04:40:01.633Z,99125.05
2018-12-08T04:42:31.447Z,99117.72
2018-12-08T04:45:01.276Z,99094.44
2018-12-08T04:47:31.346Z,99100.55
2018-12-08T04:50:01.132Z,99090.59
2018-12-08T04:52:31.479Z,99092.52
2018-12-08T04:55:01.577Z,99089.77
2018-12-08T04:57:31.400Z,99082.50
2018-12-08T05:00:01.175Z,99084.88
2018-12-08T05:02:31.056Z,99088.31
2018-12-08T05:05:00.842Z,99089.95
2018-12-08T05:07:30.683Z,99090.98
2018-12-08T05:10:00.452Z,99071.22
2018-12-08T05:12:30.254Z,99084.45
2018-12-08T05:15:00.277Z,99073.77
2018-12-08T05:17:30.068Z,99081.34
2018-12-08T05:19:59.815Z,99075.42
2018-12-08T05:22:29.595Z,99081.89
2018-12-08T05:24:59.408Z,99069.25
2018-12-08T05:27:29.270Z,99078.98
2018-12-08T05:29:59.097Z,99075.53
2018-12-08T05:32:28.876Z,99062.04
2018-12-08T05:34:58.721Z,99065.83
2018-12-08T05:37:28.493Z,99062.33
2018-12-08T05:39:58.285Z,99055.59
2018-12-08T05:42:28.141Z,99059.42
2018-12-08T05:44:57.907Z,99054.29
2018-12-08T05:47:27.736Z,99054.88
2018-12-08T05:49:57.499Z,99062.97
2018-12-08T05:52:27.285Z,99074.59
2018-12-08T05:54:57.104Z,99081.86
2018-12-08T05:57:26.889Z,99083.89
2018-12-08T05:59:56.671Z,99088.86
2018-12-08T06:02:26.769Z,99086.59
2018-12-08T06:04:56.821Z,99086.20
2018-12-08T06:07:26.617Z,99089.72
2018-12-08T06:09:56.407Z,99053.86
2018-12-08T06:12:26.483Z,99074.62
2018-12-08T06:14:56.326Z,99070.27
2018-12-08T06:17:26.086Z,99071.83
2018-12-08T06:19:56.015Z,99070.19
2018-12-08T06:22:25.828Z,99066.41
2018-12-08T06:24:56.009Z,99067.20
2018-12-08T06:27:55.792Z,99067.70
2018-12-08T06:30:25.618Z,99058.77
2018-12-08T06:32:55.470Z,99048.17
2018-12-08T06:35:25.229Z,99046.51
2018-12-08T06:37:55.102Z,99045.72
2018-12-08T06:40:29.147Z,99043.49
2018-12-08T06:42:56.639Z,99039.33
2018-12-08T06:45:26.551Z,99045.77
2018-12-08T06:47:56.339Z,99043.63
2018-12-08T06:50:26.434Z,99046.83
2018-12-08T06:52:56.265Z,99044.16
2018-12-08T06:55:26.166Z,99044.42
2018-12-08T06:57:56.245Z,99037.75
2018-12-08T07:00:26.090Z,99047.73
2018-12-08T07:02:56.026Z,99049.91
2018-12-08T07:05:25.912Z,99038.22
2018-12-08T07:07:55.725Z,99039.17
2018-12-08T07:10:25.545Z,99042.09
2018-12-08T07:12:55.358Z,99032.97
2018-12-08T07:15:25.130Z,99034.02
2018-12-08T07:17:55.495Z,99029.55
2018-12-08T07:20:25.267Z,99034.13
2018-12-08T07:22:55.033Z,99031.10
2018-12-08T07:25:24.849Z,99030.31
2018-12-08T07:27:54.625Z,99018.52
2018-12-08T07:30:24.685Z,99014.28
2018-12-08T07:32:54.736Z,99008.37
2018-12-08T07:35:24.598Z,98998.88
2018-12-08T07:37:54.357Z,98980.21
2018-12-08T07:40:24.170Z,98993.73
2018-12-08T07:42:54.218Z,99007.78
2018-12-08T07:45:24.051Z,99005.17
2018-12-08T07:47:53.867Z,98999.58
2018-12-08T07:50:24.002Z,99015.23
2018-12-08T07:52:53.767Z,99014.39
2018-12-08T07:55:23.595Z,99010.30
2018-12-08T07:57:53.361Z,98988.61
2018-12-08T08:00:23.178Z,98992.56
2018-12-08T08:02:53.245Z,98985.27
2018-12-08T08:05:23.077Z,98991.27
2018-12-08T08:07:53.198Z,98991.09
2018-12-08T08:10:23.008Z,98999.55
2018-12-08T08:12:52.799Z,98982.31
2018-12-08T08:15:22.674Z,98990.97
2018-12-08T08:17:52.428Z,98985.61
2018-12-08T08:20:22.201Z,98992.05
2018-12-08T08:22:52.252Z,98988.13
2018-12-08T08:25:22.065Z,98987.98
2018-12-08T08:27:51.810Z,98988.59
2018-12-08T08:30:21.607Z,98998.16
2018-12-08T08:32:51.651Z,98979.14
2018-12-08T08:35:21.486Z,98985.97
2018-12-08T08:37:51.258Z,98992.20
2018-12-08T08:40:21.035Z,98979.00
2018-12-08T08:42:50.845Z,98978.42
2018-12-08T08:45:20.825Z,98965.52
2018-12-08T08:47:50.596Z,98987.39
2018-12-08T08:50:20.378Z,98996.85
2018-12-08T08:52:50.698Z,98987.97
2018-12-08T08:55:20.557Z,98991.12
2018-12-08T08:57:50.341Z,98989.77
2018-12-08T09:00:20.154Z,98989.80
2018-12-08T09:02:50.202Z,98993.56
2018-12-08T09:05:19.988Z,99003.53
2018-12-08T09:07:49.751Z,99002.75
2018-12-08T09:10:19.547Z,99002.48
2018-12-08T09:12:49.435Z,99006.41
2018-12-08T09:15:19.208Z,98977.41
2018-12-08T09:17:48.964Z,98996.23
2018-12-08T09:20:18.812Z,98990.34
2018-12-08T09:22:48.559Z,98981.25
2018-12-08T09:25:18.620Z,98978.34
2018-12-08T09:27:49.268Z,98971.64
2018-12-08T09:30:19.166Z,98964.71
2018-12-08T09:32:49.244Z,98969.09
2018-12-08T09:35:19.021Z,98964.27
2018-12-08T09:37:48.794Z,98979.36
2018-12-08T09:40:18.913Z,98974.81
2018-12-08T09:42:48.686Z,98971.07
2018-12-08T09:45:18.491Z,98978.63
2018-12-08T09:47:48.232Z,98972.33
2018-12-08T09:50:18.074Z,98974.98
2018-12-08T09:53:09.998Z,98963.91
2018-12-08T09:55:39.862Z,98962.58
2018-12-08T09:58:09.918Z,98973.94
2018-12-08T10:00:39.923Z,98971.01
2018-12-08T10:03:09.700Z,98966.77
2018-12-08T10:05:39.466Z,98976.27
2018-12-08T10:08:09.543Z,98978.73
2018-12-08T10:10:39.387Z,98956.39
2018-12-08T10:13:09.200Z,98983.44
2018-12-08T10:15:38.985Z,98974.28
2018-12-08T10:18:08.783Z,98982.66
2018-12-08T10:20:38.580Z,98978.61
2018-12-08T10:23:08.351Z,98979.39
2018-12-08T10:25:38.151Z,98953.17
2018-12-08T10:28:07.904Z,98947.77
2018-12-08T10:30:37.703Z,98962.64
2018-12-08T10:33:07.470Z,98965.89
2018-12-08T10:35:37.270Z,98972.94
2018-12-08T10:38:07.461Z,98967.25
2018-12-08T10:40:37.266Z,98964.53
2018-12-08T10:43:07.118Z,98978.88
2018-12-08T10:45:36.996Z,98963.16
2018-12-08T10:48:06.824Z,98981.81
2018-12-08T10:50:36.628Z,98964.22
2018-12-08T10:53:06.413Z,98977.75
2018-12-08T10:55:36.274Z,98957.42
2018-12-08T10:58:06.057Z,98962.83
2018-12-08T11:00:52.965Z,98936.88
2018-12-08T11:03:29.631Z,98973.66
2018-12-08T11:05:59.444Z,98943.89
2018-12-08T11:08:29.516Z,98955.28
2018-12-08T11:10:59.345Z,98960.11
2018-12-08T11:13:29.078Z,98968.22
2018-12-08T11:15:59.162Z,98949.24
2018-12-08T11:18:29.062Z,98973.36
2018-12-08T11:20:59.131Z,98942.62
2018-12-08T11:23:29.214Z,98974.80
2018-12-08T11:25:59.299Z,98966.71
2018-12-08T11:28:29.076Z,98972.37
2018-12-08T11:30:58.989Z,98973.19
2018-12-08T11:33:29.041Z,98968.59
2018-12-08T11:35:58.828Z,98959.40
2018-12-08T11:38:28.642Z,98976.16
2018-12-08T11:40:58.476Z,98982.90
2018-12-08T11:43:28.543Z,98986.16
2018-12-08T11:45:58.612Z,98979.67
2018-12-08T11:48:28.397Z,98977.52
2018-12-08T11:50:58.184Z,98962.93
2018-12-08T11:53:27.946Z,98982.38
2018-12-08T11:55:57.724Z,98974.52
2018-12-08T11:58:27.551Z,98981.04
2018-12-08T12:00:57.276Z,98980.48
2018-12-08T12:03:27.038Z,98954.02
2018-12-08T12:05:57.134Z,98966.98
2018-12-08T12:08:26.909Z,98965.09
2018-12-08T12:10:56.713Z,98950.73
2018-12-08T12:13:26.512Z,98976.14
2018-12-08T12:15:56.312Z,98976.96
2018-12-08T12:18:26.070Z,98958.03
2018-12-08T12:20:56.140Z,98945.86
2018-12-08T12:23:25.926Z,98969.09
2018-12-08T12:25:55.722Z,98965.58
2018-12-08T12:28:25.530Z,98973.41
2018-12-08T12:30:55.672Z,98972.87
2018-12-08T12:33:25.426Z,98974.72
2018-12-08T12:35:55.229Z,98990.13
2018-12-08T12:38:25.263Z,98989.31
2018-12-08T12:40:55.057Z,98976.88
2018-12-08T12:43:24.915Z,98990.66
2018-12-08T12:45:54.698Z,98984.95
2018-12-08T12:48:24.478Z,98986.05
2018-12-08T12:50:54.667Z,98990.08
2018-12-08T12:53:24.455Z,98983.59
2018-12-08T12:55:54.246Z,98971.41
2018-12-08T12:58:24.011Z,98975.48
2018-12-08T13:00:53.919Z,98965.45
2018-12-08T13:03:23.691Z,98983.05
2018-12-08T13:05:53.467Z,98961.12
2018-12-08T13:08:23.255Z,98986.58
2018-12-08T13:10:53.033Z,98987.36
2018-12-08T13:13:22.854Z,98983.05
2018-12-08T13:15:52.607Z,98988.45
2018-12-08T13:18:22.380Z,98987.64
2018-12-08T13:20:52.414Z,98992.24
2018-12-08T13:23:22.207Z,98979.00
2018-12-08T13:25:51.988Z,98993.88
2018-12-08T13:28:21.848Z,98995.78
2018-12-08T13:30:51.627Z,98991.99
2018-12-08T13:33:21.402Z,98980.88
2018-12-08T13:35:56.207Z,98983.59
2018-12-08T13:38:25.981Z,98952.98
2018-12-08T13:40:55.734Z,98987.11
2018-12-08T13:43:25.540Z,98969.47
2018-12-08T13:45:55.361Z,98975.98
2018-12-08T13:48:26.418Z,98965.40
2018-12-08T13:50:56.167Z,98966.22
2018-12-08T13:53:25.974Z,98955.92
2018-12-08T13:55:55.734Z,98957.50
2018-12-08T13:58:25.767Z,98961.03
2018-12-08T14:00:55.845Z,98954.55
2018-12-08T14:03:25.655Z,98965.08
2018-12-08T14:05:55.467Z,98962.36
2018-12-08T14:08:25.689Z,98956.13
2018-12-08T14:10:55.445Z,98952.64
2018-12-08T14:13:25.250Z,98947.19
2018-12-08T14:15:55.066Z,98964.00
2018-12-08T14:18:34.682Z,98952.36
2018-12-08T14:21:06.456Z,98936.64
2018-12-08T14:23:36.349Z,98940.94
2018-12-08T14:26:07.621Z,98942.89
2018-12-08T14:28:37.814Z,98948.58
2018-12-08T14:31:08.190Z,98947.77
2018-12-08T14:33:38.857Z,98951.00
2018-12-08T14:36:09.134Z,98950.48
2018-12-08T14:38:39.025Z,98938.91
2018-12-08T14:41:08.915Z,98957.56
2018-12-08T14:43:53.030Z,98949.67
2018-12-08T14:46:29.604Z,98952.59
2018-12-08T14:48:59.385Z,98949.42
2018-12-08T14:51:29.144Z,98923.93
2018-12-08T14:54:00.946Z,98942.89
2018-12-08T14:56:31.105Z,98949.66
2018-12-08T14:59:01.459Z,98917.98
2018-12-08T15:01:31.227Z,98942.36
2018-12-08T15:04:01.008Z,98953.16
2018-12-08T15:06:30.805Z,98943.70
2018-12-08T15:09:00.905Z,98935.79
2018-12-08T15:11:30.725Z,98947.44
2018-12-08T15:14:00.530Z,98928.50
2018-12-08T15:16:30.292Z,98943.12
2018-12-08T15:19:00.098Z,98931.23
2018-12-08T15:21:29.936Z,98942.57
2018-12-08T15:23:59.708Z,98935.79
2018-12-08T15:26:29.550Z,98927.38
2018-12-08T15:28:59.407Z,98929.05
2018-12-08T15:31:29.163Z,98928.80
2018-12-08T15:33:59.277Z,98916.60
2018-12-08T15:36:30.803Z,98908.44
2018-12-08T15:39:00.998Z,98927.66
2018-12-08T15:41:30.765Z,98910.05
2018-12-08T15:44:00.561Z,98902.22
2018-12-08T15:46:30.325Z,98905.73
2018-12-08T15:49:00.123Z,98910.59
2018-12-08T15:51:29.911Z,98912.77
2018-12-08T15:54:00.811Z,98903.86
2018-12-08T15:56:30.872Z,98900.91
2018-12-08T15:59:00.690Z,98906.33
2018-12-08T16:01:30.473Z,98899.48
2018-12-08T16:04:00.590Z,98905.45
2018-12-08T16:06:30.409Z,98893.30
2018-12-08T16:09:00.257Z,98892.70
2018-12-08T16:11:30.589Z,98879.73
2018-12-08T16:14:00.409Z,98877.28
2018-12-08T16:16:30.172Z,98882.96
2018-12-08T16:19:00.016Z,98876.44
2018-12-08T16:21:32.240Z,98865.24
2018-12-08T16:24:02.332Z,98879.31
2018-12-08T16:26:32.166Z,98858.95
2018-12-08T16:29:02.024Z,98861.38
2018-12-08T16:31:31.869Z,98851.91
2018-12-08T16:34:01.725Z,98859.53
2018-12-08T16:36:31.963Z,98866.05
2018-12-08T16:39:01.903Z,98857.44
2018-12-08T16:41:32.112Z,98849.05
2018-12-08T16:44:02.053Z,98848.29
2018-12-08T16:46:32.004Z,98846.93
2018-12-08T16:49:01.964Z,98835.59
2018-12-08T16:51:31.896Z,98830.20
2018-12-08T16:54:03.536Z,98820.73
2018-12-08T16:56:33.479Z,98815.08
2018-12-08T16:59:03.302Z,98819.16
2018-12-08T17:01:33.521Z,98809.76
2018-12-08T17:04:03.399Z,98795.95
2018-12-08T17:06:33.824Z,98791.06
2018-12-08T17:09:03.919Z,98792.16
2018-12-08T17:11:33.806Z,98788.36
2018-12-08T17:14:03.636Z,98773.50
2018-12-08T17:16:34.011Z,98761.40
2018-12-08T17:19:04.100Z,98752.30
2018-12-08T17:21:34.259Z,98751.87
2018-12-08T17:24:04.053Z,98732.48
2018-12-08T17:26:33.966Z,98728.97
2018-12-08T17:29:03.855Z,98734.91
2018-12-08T17:31:33.793Z,98732.23
2018-12-08T17:34:03.697Z,98719.50
2018-12-08T17:36:33.851Z,98709.72
2018-12-08T17:41:32.953Z,98690.20
2018-12-08T17:44:03.618Z,98685.60
2018-12-08T17:46:33.665Z,98683.72
2018-12-08T17:49:06.732Z,98676.39
2018-12-08T17:51:36.781Z,98683.38
2018-12-08T17:54:06.895Z,98677.15
2018-12-08T17:56:36.678Z,98674.42
2018-12-08T17:59:06.769Z,98662.79
2018-12-08T18:01:36.578Z,98648.95
2018-12-08T18:04:06.372Z,98651.11
2018-12-08T18:06:36.186Z,98637.58
2018-12-08T18:09:07.756Z,98628.08
2018-12-08T18:11:37.572Z,98625.09
2018-12-08T18:14:07.333Z,98611.58
2018-12-08T18:16:37.148Z,98608.09
2018-12-08T18:19:06.958Z,98599.98
2018-12-08T18:21:36.846Z,98596.77
2018-12-08T18:24:06.656Z,98582.13
2018-12-08T18:26:36.463Z,98591.19
2018-12-08T18:29:06.225Z,98576.15
2018-12-08T18:31:36.036Z,98571.30
2018-12-08T18:34:05.909Z,98558.60
2018-12-08T18:36:36.080Z,98546.16
2018-12-08T18:39:07.570Z,98547.28
2018-12-08T18:41:37.406Z,98543.20
2018-12-08T18:44:07.169Z,98530.03
2018-12-08T18:46:37.028Z,98511.42
2018-12-08T18:49:06.785Z,98504.63
2018-12-08T18:51:36.784Z,98504.63
2018-12-08T18:54:06.591Z,98490.02
2018-12-08T18:56:36.457Z,98490.53
2018-12-08T18:59:06.363Z,98491.81
2018-12-08T19:01:36.282Z,98465.25
2018-12-08T19:04:06.247Z,98468.47
2018-12-08T19:06:36.138Z,98450.59
2018-12-08T19:09:07.047Z,98438.89
2018-12-08T19:11:36.835Z,98416.40
2018-12-08T19:14:06.725Z,98414.42
2018-12-08T19:16:36.535Z,98405.47
2018-12-08T19:19:06.377Z,98407.40
2018-12-08T19:21:36.158Z,98392.92
2018-12-08T19:24:06.020Z,98385.05
2018-12-08T19:26:35.816Z,98388.45
2018-12-08T19:29:05.690Z,98381.42
2018-12-08T19:31:35.507Z,98382.48
2018-12-08T19:34:05.280Z,98371.32
2018-12-08T19:36:35.386Z,98363.44
2018-12-08T19:39:06.792Z,98360.38
2018-12-08T19:41:36.703Z,98356.16
2018-12-08T19:44:06.525Z,98346.92
2018-12-08T19:46:36.393Z,98326.81
2018-12-08T19:49:06.227Z,98314.13
2018-12-08T19:51:36.154Z,98307.90
2018-12-08T19:54:06.052Z,98298.08
2018-12-08T19:56:35.917Z,98307.80
2018-12-08T19:59:05.958Z,98300.25
2018-12-08T20:01:36.089Z,98305.19
2018-12-08T20:04:06.273Z,98312.20
2018-12-08T20:06:36.318Z,98315.41
2018-12-08T20:09:07.642Z,98304.77
2018-12-08T20:11:37.421Z,98277.83
2018-12-08T20:14:07.592Z,98275.16
2018-12-08T20:16:38.088Z,98294.97
2018-12-08T20:19:08.220Z,98277.66
2018-12-08T20:21:38.035Z,98279.58
2018-12-08T20:24:07.900Z,98260.07
2018-12-08T20:26:37.769Z,98238.76
2018-12-08T20:29:09.111Z,98245.77
2018-12-08T20:31:38.946Z,98244.34
2018-12-08T20:34:08.781Z,98231.05
2018-12-08T20:36:38.928Z,98238.86
2018-12-08T20:39:08.732Z,98223.14
2018-12-08T20:41:38.594Z,98225.50
2018-12-08T20:44:08.396Z,98211.80
2018-12-08T20:46:38.211Z,98207.01
2018-12-08T20:49:08.024Z,98201.25
2018-12-08T20:51:37.893Z,98184.82
2018-12-08T20:54:07.811Z,98170.88
2018-12-08T20:56:37.591Z,98171.47
2018-12-08T20:59:07.403Z,98167.13
2018-12-08T21:01:37.221Z,98154.30
2018-12-08T21:04:07.096Z,98149.30
2018-12-08T21:06:37.017Z,98142.19
2018-12-08T21:09:07.566Z,98144.55
2018-12-08T21:11:37.423Z,98128.55
2018-12-08T21:14:07.221Z,98127.33
2018-12-08T21:16:37.124Z,98121.74
2018-12-08T21:19:06.958Z,98133.98
2018-12-08T21:21:36.737Z,98137.96
2018-12-08T21:24:06.566Z,98166.23
2018-12-08T21:26:36.421Z,98114.20
2018-12-08T21:29:06.185Z,98134.69
2018-12-08T21:31:36.025Z,98129.23
2018-12-08T21:34:06.077Z,98140.06
2018-12-08T21:36:35.899Z,98090.69
2018-12-08T21:39:07.078Z,98027.66
2018-12-08T21:41:36.880Z,98065.60
2018-12-08T21:44:07.916Z,98070.13
2018-12-08T21:46:37.826Z,98074.10
2018-12-08T21:49:07.857Z,98073.02
2018-12-08T21:51:37.654Z,98085.44
2018-12-08T21:54:07.546Z,98095.09
2018-12-08T21:56:37.671Z,98035.55
2018-12-08T21:59:07.454Z,98057.45
2018-12-08T22:01:37.243Z,98060.02
2018-12-08T22:04:07.031Z,98055.59
2018-12-08T22:06:36.818Z,98060.88
2018-12-08T22:09:07.925Z,98072.12
2018-12-08T22:11:37.761Z,98067.11
2018-12-08T22:14:07.840Z,98072.93
2018-12-08T22:16:37.617Z,98061.50
2018-12-08T22:19:07.475Z,98063.45
2018-12-08T22:21:37.632Z,98046.98
2018-12-08T22:24:07.456Z,98056.77
2018-12-08T22:26:37.324Z,98055.00
2018-12-08T22:29:07.121Z,98064.31
2018-12-08T22:31:37.455Z,98058.13
2018-12-08T22:34:07.241Z,98056.59
2018-12-08T22:36:37.034Z,98065.87
2018-12-08T22:39:08.395Z,98025.52
2018-12-08T22:41:38.174Z,98060.76
2018-12-08T22:44:07.969Z,98057.42
2018-12-08T22:46:37.767Z,98039.98
2018-12-08T22:49:07.614Z,98050.44
2018-12-08T22:51:37.434Z,98051.30
2018-12-08T22:54:07.311Z,98036.23
2018-12-08T22:56:37.367Z,98059.08
2018-12-08T22:59:07.338Z,98066.17
2018-12-08T23:01:37.103Z,98051.72
2018-12-08T23:04:07.209Z,97997.73
2018-12-08T23:06:37.623Z,98047.87
2018-12-08T23:09:07.715Z,98048.02
2018-12-08T23:11:37.504Z,98053.78
2018-12-08T23:14:07.309Z,98030.00
2018-12-08T23:16:37.138Z,98015.16
2018-12-08T23:19:43.875Z,98032.30
2018-12-08T23:22:12.383Z,98013.34
2018-12-08T23:24:40.871Z,98021.23
2018-12-08T23:27:09.323Z,98032.25
2018-12-08T23:29:37.789Z,98009.08
2018-12-08T23:32:06.455Z,98045.66
2018-12-08T23:34:34.832Z,98013.44
2018-12-08T23:37:03.414Z,98022.30
2018-12-08T23:39:38.730Z,97995.27
2018-12-08T23:42:02.307Z,98016.69
2018-12-08T23:44:30.753Z,98026.71
2018-12-08T23:46:59.232Z,98012.13
2018-12-08T23:49:27.653Z,98020.26
2018-12-08T23:51:56.132Z,98019.40
2018-12-08T23:54:24.543Z,98017.33
2018-12-08T23:56:55.039Z,98004.41
2018-12-08T23:59:23.779Z,98030.21
